Time;durP1;ratioP1;P1;durP2;ratioP2;P2;SDS_P1;SDS_P2;PMS_P1;PMS_P2;Temp;Humidity;BMP_temperature;BMP_pressure;BME280_temperature;BME280_humidity;BME280_pressure;Samples;Min_cycle;Max_cycle;Signal;HPM_P1;HPM_P2
2022/12/12 00:00:48;;;;;;;36.10;18.75;;;1.30;99.90;;;;;;7369283;32;20186;-60
2022/12/12 00:04:49;;;;;;;33.83;17.75;;;1.20;99.90;;;;;;7371464;32;20137;-59
2022/12/12 00:08:51;;;;;;;35.40;19.52;;;1.20;99.90;;;;;;7380841;32;20115;-59
2022/12/12 00:12:53;;;;;;;39.15;19.08;;;1.20;99.90;;;;;;7376668;32;20116;-59
2022/12/12 00:16:54;;;;;;;36.45;19.37;;;1.20;99.90;;;;;;7373088;32;20142;-61
2022/12/12 00:20:56;;;;;;;34.33;17.52;;;1.20;99.90;;;;;;7374171;32;20842;-61
2022/12/12 00:24:58;;;;;;;37.83;17.30;;;1.20;99.90;;;;;;7379220;32;20147;-60
2022/12/12 00:29:03;;;;;;;37.95;18.27;;;1.20;99.90;;;;;;7377822;32;20128;-60
2022/12/12 00:33:05;;;;;;;33.85;18.75;;;1.20;99.90;;;;;;7375228;32;20107;-60
2022/12/12 00:37:06;;;;;;;34.92;17.77;;;1.30;99.90;;;;;;7375365;32;20224;-60
2022/12/12 00:41:08;;;;;;;36.78;19.05;;;1.30;99.90;;;;;;7376071;32;20133;-59
2022/12/12 00:45:10;;;;;;;38.60;18.52;;;1.30;99.90;;;;;;7379465;32;20111;-60
2022/12/12 00:49:13;;;;;;;36.30;18.12;;;1.30;99.90;;;;;;7380063;32;20130;-59
2022/12/12 00:53:15;;;;;;;35.78;18.48;;;1.20;99.90;;;;;;7380205;32;20137;-61
2022/12/12 00:57:17;;;;;;;37.35;18.27;;;1.20;99.90;;;;;;7380056;32;20862;-59
2022/12/12 01:01:22;;;;;;;34.97;17.65;;;1.30;99.90;;;;;;7379044;32;20139;-60
2022/12/12 01:05:25;;;;;;;32.85;17.20;;;1.30;99.90;;;;;;7377126;32;20782;-60
2022/12/12 01:09:27;;;;;;;31.15;17.40;;;1.30;99.90;;;;;;7375062;32;20201;-60
2022/12/12 01:13:29;;;;;;;35.38;17.98;;;1.30;99.90;;;;;;7370848;32;20186;-60
2022/12/12 01:17:36;;;;;;;34.42;17.40;;;1.30;99.90;;;;;;7381193;32;20133;-60
2022/12/12 01:21:38;;;;;;;36.22;17.10;;;1.30;99.90;;;;;;7379976;32;20119;-60
2022/12/12 01:25:40;;;;;;;36.85;18.42;;;1.30;99.90;;;;;;7380322;32;20225;-60
2022/12/12 01:29:41;;;;;;;34.60;17.52;;;1.20;99.90;;;;;;7383169;32;20114;-59
2022/12/12 01:33:44;;;;;;;38.05;18.90;;;1.20;99.90;;;;;;7378821;32;20774;-59
2022/12/12 01:37:48;;;;;;;33.28;18.00;;;1.20;99.90;;;;;;7375027;32;20131;-60
2022/12/12 01:41:49;;;;;;;34.15;17.65;;;1.20;99.90;;;;;;7374144;32;20103;-60
2022/12/12 01:45:57;;;;;;;33.58;17.42;;;1.20;99.90;;;;;;7373920;32;20110;-60
2022/12/12 01:50:07;;;;;;;31.75;16.77;;;1.20;99.90;;;;;;7377802;32;20115;-59
2022/12/12 01:54:18;;;;;;;33.85;17.90;;;1.20;99.90;;;;;;7378522;32;20551;-59
2022/12/12 01:58:20;;;;;;;35.15;17.20;;;1.10;99.90;;;;;;7373562;32;20388;-59
2022/12/12 02:02:22;;;;;;;33.50;17.85;;;1.10;99.90;;;;;;7378115;32;20110;-59
2022/12/12 02:06:26;;;;;;;34.20;17.90;;;1.10;99.90;;;;;;7370579;32;20116;-59
2022/12/12 02:10:28;;;;;;;34.97;17.50;;;1.10;99.90;;;;;;7378541;32;20110;-59
2022/12/12 02:14:40;;;;;;;30.15;15.90;;;1.00;99.90;;;;;;7378224;32;20490;-60
2022/12/12 02:19:10;;;;;;;32.88;17.40;;;1.00;99.90;;;;;;7378375;32;20107;-60
2022/12/12 02:23:33;;;;;;;33.65;17.62;;;0.90;99.90;;;;;;7374995;32;20107;-60
2022/12/12 02:28:02;;;;;;;35.08;17.27;;;0.70;99.90;;;;;;7371944;32;20126;-61
2022/12/12 02:32:35;;;;;;;33.25;16.12;;;0.60;99.90;;;;;;7374795;32;20462;-61
2022/12/12 02:37:02;;;;;;;33.67;17.62;;;0.50;99.90;;;;;;7378411;32;21180;-60
2022/12/12 02:41:22;;;;;;;36.15;17.48;;;0.40;99.90;;;;;;7374559;32;20099;-60
2022/12/12 02:45:33;;;;;;;36.13;17.00;;;0.20;99.90;;;;;;7366345;32;20312;-59
2022/12/12 02:49:47;;;;;;;34.35;17.85;;;0.10;99.90;;;;;;7372981;32;20515;-59
2022/12/12 02:53:49;;;;;;;31.33;16.77;;;0.10;99.90;;;;;;7376046;32;20245;-61
2022/12/12 02:57:52;;;;;;;32.85;16.77;;;0.20;99.90;;;;;;7379284;32;20227;-60
2022/12/12 03:02:22;;;;;;;39.28;18.35;;;0.20;99.90;;;;;;7378665;32;20142;-60
2022/12/12 03:11:06;;;;;;;43.78;19.58;;;0.30;99.90;;;;;;7377848;32;20197;-60
2022/12/12 03:15:13;;;;;;;;;;;0.30;99.90;;;;;;7371213;32;20110;-60
2022/12/12 03:19:29;;;;;;;31.37;17.03;;;0.40;99.90;;;;;;7378124;32;20659;-60
2022/12/12 03:23:37;;;;;;;32.90;17.35;;;0.40;99.90;;;;;;7374470;32;20502;-59
2022/12/12 03:27:55;;;;;;;34.35;17.87;;;0.40;99.90;;;;;;7379145;32;20142;-60
2022/12/12 03:32:06;;;;;;;40.08;19.37;;;0.50;99.90;;;;;;7376880;32;20122;-60
2022/12/12 03:36:20;;;;;;;33.45;18.25;;;0.60;99.90;;;;;;7383607;32;20228;-60
2022/12/12 03:40:29;;;;;;;38.65;18.60;;;0.60;99.90;;;;;;7380148;32;20137;-60
2022/12/12 03:44:38;;;;;;;35.28;17.83;;;0.60;99.90;;;;;;7374146;32;20110;-59
2022/12/12 03:49:04;;;;;;;34.95;17.83;;;0.60;99.90;;;;;;7379616;32;20106;-60
2022/12/12 03:53:12;;;;;;;36.78;18.92;;;0.70;99.90;;;;;;7375135;32;20577;-61
2022/12/12 03:57:21;;;;;;;39.97;19.83;;;0.70;99.90;;;;;;7379733;32;20135;-59
2022/12/12 04:01:29;;;;;;;37.20;18.55;;;0.70;99.90;;;;;;7374419;32;20950;-60
2022/12/12 04:05:38;;;;;;;35.58;18.40;;;0.70;99.90;;;;;;7382324;32;20545;-60
2022/12/12 04:14:40;;;;;;;32.33;17.65;;;0.80;99.90;;;;;;7371167;32;20165;-60
2022/12/12 04:18:51;;;;;;;33.25;18.50;;;0.80;99.90;;;;;;7375241;32;20110;-61
2022/12/12 04:23:29;;;;;;;32.38;17.58;;;0.70;99.90;;;;;;7377876;32;20114;-60
2022/12/12 04:27:40;;;;;;;31.12;16.95;;;0.80;99.90;;;;;;7371494;32;20261;-59
2022/12/12 04:32:06;;;;;;;37.30;18.25;;;0.70;99.90;;;;;;7371162;32;20225;-60
2022/12/12 04:36:10;;;;;;;32.33;17.58;;;0.70;99.90;;;;;;7380679;32;20276;-60
2022/12/12 04:40:33;;;;;;;33.80;17.83;;;0.80;99.90;;;;;;7377838;32;20522;-60
2022/12/12 04:44:39;;;;;;;30.30;17.23;;;0.70;99.90;;;;;;7382255;32;20159;-60
2022/12/12 04:48:50;;;;;;;35.80;17.42;;;0.70;99.90;;;;;;7385545;32;20115;-60
2022/12/12 04:52:57;;;;;;;29.50;17.20;;;0.70;99.90;;;;;;7377613;32;20210;-59
2022/12/12 04:57:02;;;;;;;31.62;16.98;;;0.60;99.90;;;;;;7368530;32;20107;-59
2022/12/12 05:01:22;;;;;;;30.02;16.23;;;0.60;99.90;;;;;;7373637;32;20190;-60
2022/12/12 05:05:56;;;;;;;32.72;17.75;;;0.60;99.90;;;;;;7378135;32;20137;-60
2022/12/12 05:09:59;;;;;;;29.17;16.42;;;0.50;99.90;;;;;;7372229;32;20202;-60
2022/12/12 05:14:00;;;;;;;35.47;18.12;;;0.50;99.90;;;;;;7377507;32;20107;-60
2022/12/12 05:18:06;;;;;;;34.80;17.73;;;0.50;99.90;;;;;;7376111;32;20132;-58
2022/12/12 05:22:08;;;;;;;31.90;17.40;;;0.40;99.90;;;;;;7380403;32;20577;-61
2022/12/12 05:26:21;;;;;;;30.98;17.20;;;0.40;99.90;;;;;;7373719;32;20122;-61
2022/12/12 05:30:23;;;;;;;31.52;16.73;;;0.30;99.90;;;;;;7374922;32;20605;-60
2022/12/12 05:34:24;;;;;;;32.50;17.25;;;0.20;99.90;;;;;;7378838;32;20133;-60
2022/12/12 05:38:26;;;;;;;33.55;17.35;;;0.10;99.90;;;;;;7370360;32;20130;-60
2022/12/12 05:42:28;;;;;;;35.67;19.35;;;0.10;99.90;;;;;;7378982;32;20233;-60
2022/12/12 05:46:30;;;;;;;33.67;18.37;;;0.00;99.90;;;;;;7374715;32;20201;-61
2022/12/12 05:50:31;;;;;;;33.97;16.73;;;0.00;99.90;;;;;;7368968;32;20099;-57
2022/12/12 05:54:33;;;;;;;30.75;16.65;;;-0.10;99.90;;;;;;7368992;32;20142;-58
2022/12/12 05:58:35;;;;;;;36.80;18.40;;;0.00;99.90;;;;;;7375605;32;20118;-58
2022/12/12 06:02:36;;;;;;;35.22;18.10;;;0.00;99.90;;;;;;7374524;32;20107;-59
2022/12/12 06:06:38;;;;;;;35.80;18.58;;;0.00;99.90;;;;;;7383187;32;20277;-60
2022/12/12 06:10:40;;;;;;;36.10;18.62;;;0.00;99.90;;;;;;7374103;32;20138;-59
2022/12/12 06:14:41;;;;;;;34.60;19.00;;;0.10;99.90;;;;;;7375313;32;20122;-59
2022/12/12 06:18:48;;;;;;;36.83;20.23;;;0.20;99.90;;;;;;7373964;32;20140;-58
2022/12/12 06:22:50;;;;;;;38.40;20.35;;;0.30;99.90;;;;;;7364151;32;20115;-59
2022/12/12 06:26:54;;;;;;;36.50;20.15;;;0.30;99.90;;;;;;7377698;32;20119;-59
2022/12/12 06:30:56;;;;;;;38.08;20.40;;;0.30;99.90;;;;;;7369259;32;20144;-61
2022/12/12 06:34:58;;;;;;;35.22;19.42;;;0.40;99.90;;;;;;7376266;32;20220;-60
2022/12/12 06:39:00;;;;;;;41.20;20.27;;;0.40;99.90;;;;;;7374744;32;20470;-60
2022/12/12 06:43:02;;;;;;;38.72;20.98;;;0.50;99.90;;;;;;7371444;32;20210;-60
2022/12/12 06:47:03;;;;;;;39.80;20.08;;;0.40;99.90;;;;;;7382267;32;20103;-60
2022/12/12 06:51:08;;;;;;;38.85;20.45;;;0.50;99.90;;;;;;7377867;32;20220;-61
2022/12/12 06:55:09;;;;;;;35.75;19.40;;;0.50;99.90;;;;;;7386644;32;20121;-61
2022/12/12 06:59:12;;;;;;;32.15;18.85;;;0.60;99.90;;;;;;7381586;32;20126;-60
2022/12/12 07:03:14;;;;;;;39.35;19.77;;;0.60;99.90;;;;;;7384320;32;20138;-60
2022/12/12 07:07:16;;;;;;;40.00;20.48;;;0.60;99.90;;;;;;7385384;32;20115;-61
2022/12/12 07:11:23;;;;;;;40.53;19.75;;;0.50;99.90;;;;;;7380141;32;20134;-60
2022/12/12 07:15:24;;;;;;;;;;;0.50;99.90;;;;;;7376886;32;20152;-59
2022/12/12 07:19:26;;;;;;;33.70;18.42;;;0.40;99.90;;;;;;7387322;32;20026;-60
2022/12/12 07:23:27;;;;;;;34.97;19.35;;;0.40;99.90;;;;;;7382121;32;20139;-60
2022/12/12 07:27:29;;;;;;;38.67;19.65;;;0.40;99.90;;;;;;7378767;32;20134;-60
2022/12/12 07:31:31;;;;;;;40.22;19.45;;;0.30;99.90;;;;;;7376914;32;20122;-61
2022/12/12 07:35:33;;;;;;;35.55;18.90;;;0.30;99.90;;;;;;7378026;32;20169;-61
2022/12/12 07:39:36;;;;;;;31.87;18.15;;;0.30;99.90;;;;;;7376500;32;20111;-62
2022/12/12 07:43:39;;;;;;;35.47;18.17;;;0.20;99.90;;;;;;7376285;32;20471;-61
2022/12/12 07:47:45;;;;;;;31.87;17.33;;;0.10;99.90;;;;;;7370497;32;20192;-62
2022/12/12 07:51:47;;;;;;;33.38;17.00;;;0.00;99.90;;;;;;7374646;32;20115;-62
2022/12/12 07:55:50;;;;;;;31.85;17.67;;;-0.10;99.90;;;;;;7380992;32;20253;-61
2022/12/12 07:59:51;;;;;;;30.15;17.52;;;-0.30;99.90;;;;;;7374297;32;20133;-61
2022/12/12 08:03:53;;;;;;;33.95;18.50;;;-0.20;99.90;;;;;;7382082;32;20673;-61
2022/12/12 08:07:55;;;;;;;30.42;17.20;;;-0.30;99.90;;;;;;7379382;32;20125;-62
2022/12/12 08:11:58;;;;;;;31.27;17.55;;;-0.30;99.90;;;;;;7382081;32;20138;-61
2022/12/12 08:16:00;;;;;;;34.90;18.23;;;-0.40;99.90;;;;;;7380734;32;20481;-60
2022/12/12 08:20:02;;;;;;;33.97;17.02;;;-0.50;99.90;;;;;;7381082;32;20148;-60
2022/12/12 08:24:04;;;;;;;32.80;17.17;;;-0.50;99.90;;;;;;7383986;32;20115;-60
2022/12/12 08:28:06;;;;;;;32.13;16.83;;;-0.50;99.90;;;;;;7375010;32;20111;-61
2022/12/12 08:32:07;;;;;;;32.67;16.98;;;-0.60;99.90;;;;;;7367923;32;20252;-61
2022/12/12 08:36:24;;;;;;;30.75;15.48;;;-0.50;99.90;;;;;;7366103;32;20205;-61
2022/12/12 08:40:26;;;;;;;29.30;15.18;;;-0.50;99.90;;;;;;7375251;32;20137;-62
2022/12/12 08:44:27;;;;;;;24.48;13.93;;;-0.50;99.90;;;;;;7370253;32;20137;-61
2022/12/12 08:48:29;;;;;;;23.25;12.30;;;-0.60;99.90;;;;;;7374393;32;20228;-61
2022/12/12 08:52:31;;;;;;;23.58;12.32;;;-0.50;99.90;;;;;;7371072;32;20106;-61
2022/12/12 08:56:33;;;;;;;27.30;12.37;;;-0.50;99.90;;;;;;7368881;32;20538;-62
2022/12/12 09:00:35;;;;;;;22.37;11.45;;;-0.40;99.90;;;;;;7374888;32;20132;-62
2022/12/12 09:04:37;;;;;;;21.73;10.80;;;-0.40;99.90;;;;;;7382621;32;20206;-62
2022/12/12 09:08:39;;;;;;;22.67;11.73;;;-0.40;99.90;;;;;;7370051;32;20260;-61
2022/12/12 09:12:41;;;;;;;21.77;10.70;;;-0.40;99.90;;;;;;7375491;32;20549;-61
2022/12/12 09:16:43;;;;;;;21.50;10.80;;;-0.40;99.90;;;;;;7381749;32;20506;-61
2022/12/12 09:20:53;;;;;;;21.17;11.40;;;-0.30;99.90;;;;;;7382091;32;20441;-62
2022/12/12 09:24:55;;;;;;;19.45;10.43;;;-0.20;99.90;;;;;;7382716;32;20130;-63
2022/12/12 09:28:56;;;;;;;25.30;11.25;;;-0.20;99.90;;;;;;7378076;32;20110;-62
2022/12/12 09:32:58;;;;;;;20.12;11.18;;;-0.10;99.90;;;;;;7376611;32;20316;-61
2022/12/12 09:37:00;;;;;;;20.40;10.25;;;-0.10;99.90;;;;;;7381544;32;20208;-61
2022/12/12 09:41:08;;;;;;;22.52;10.00;;;-0.10;99.90;;;;;;7375458;32;20137;-60
2022/12/12 09:45:10;;;;;;;19.52;10.73;;;0.00;99.90;;;;;;7371528;32;20561;-60
2022/12/12 09:49:26;;;;;;;19.80;10.20;;;0.00;99.90;;;;;;7375299;32;20167;-61
2022/12/12 09:53:28;;;;;;;21.05;10.93;;;-0.10;99.90;;;;;;7379131;32;20125;-61
2022/12/12 09:57:47;;;;;;;18.95;10.63;;;0.00;99.90;;;;;;7374151;32;20605;-61
2022/12/12 10:02:04;;;;;;;21.60;11.30;;;0.00;99.90;;;;;;7370974;32;20137;-61
2022/12/12 10:06:12;;;;;;;24.23;9.93;;;0.10;99.90;;;;;;7374931;32;20127;-62
2022/12/12 10:10:38;;;;;;;16.95;9.77;;;0.10;99.90;;;;;;7376567;32;20523;-61
2022/12/12 10:14:47;;;;;;;19.97;10.30;;;0.30;99.90;;;;;;7375994;32;20205;-61
2022/12/12 10:18:52;;;;;;;20.55;10.68;;;0.30;99.90;;;;;;7375370;32;20171;-62
2022/12/12 10:23:13;;;;;;;19.73;10.77;;;0.30;99.90;;;;;;7374180;32;20145;-62
2022/12/12 10:27:15;;;;;;;22.17;10.85;;;0.40;99.90;;;;;;7380168;32;20137;-63
2022/12/12 10:31:17;;;;;;;22.98;11.30;;;0.40;99.90;;;;;;7375378;32;20507;-62
2022/12/12 10:35:37;;;;;;;22.23;10.98;;;0.40;99.90;;;;;;7369818;32;20119;-62
2022/12/12 10:39:39;;;;;;;18.23;9.73;;;0.40;99.90;;;;;;7368020;32;20099;-62
2022/12/12 10:44:04;;;;;;;23.23;11.20;;;0.50;99.90;;;;;;7369623;32;20149;-61
2022/12/12 10:48:05;;;;;;;22.10;10.77;;;0.60;99.90;;;;;;7373538;32;20137;-62
2022/12/12 10:52:20;;;;;;;19.27;10.65;;;0.60;99.90;;;;;;7374850;32;20127;-64
2022/12/12 10:56:25;;;;;;;17.27;10.18;;;0.80;99.90;;;;;;7375292;32;20275;-61
2022/12/12 11:00:48;;;;;;;19.35;10.27;;;0.90;99.90;;;;;;7368044;32;20156;-61
2022/12/12 11:05:01;;;;;;;19.67;10.25;;;0.80;99.90;;;;;;7368889;32;20237;-61
2022/12/12 11:09:24;;;;;;;19.62;10.10;;;0.90;99.90;;;;;;7372269;32;20217;-63
2022/12/12 11:13:26;;;;;;;22.08;10.70;;;1.00;99.90;;;;;;7376864;32;20115;-62
2022/12/12 11:17:33;;;;;;;19.30;10.60;;;1.20;99.90;;;;;;7369976;32;20130;-62
2022/12/12 11:21:35;;;;;;;27.70;12.18;;;1.10;99.90;;;;;;7369865;32;20144;-62
2022/12/12 11:25:37;;;;;;;21.30;11.18;;;1.10;99.90;;;;;;7370892;32;20201;-61
2022/12/12 11:29:39;;;;;;;19.48;11.12;;;1.40;99.90;;;;;;7374099;32;20459;-61
2022/12/12 11:33:47;;;;;;;20.62;11.07;;;1.30;99.90;;;;;;7363411;32;20141;-61
2022/12/12 11:37:58;;;;;;;19.12;11.35;;;1.20;99.90;;;;;;7379329;32;20129;-62
2022/12/12 11:42:29;;;;;;;20.73;11.40;;;1.20;99.90;;;;;;7379991;32;20186;-62
2022/12/12 11:46:32;;;;;;;20.75;11.48;;;1.30;99.90;;;;;;7375860;32;20107;-63
2022/12/12 11:50:44;;;;;;;24.48;11.38;;;1.40;99.90;;;;;;7374725;32;20226;-61
2022/12/12 11:54:46;;;;;;;24.52;11.57;;;1.50;99.90;;;;;;7376809;32;20133;-62
2022/12/12 11:58:56;;;;;;;20.25;11.23;;;1.50;99.90;;;;;;7376266;32;20129;-62
2022/12/12 12:03:28;;;;;;;22.17;11.40;;;1.40;99.90;;;;;;7371509;32;20111;-62
2022/12/12 12:07:46;;;;;;;19.70;10.70;;;1.40;99.90;;;;;;7374572;32;20114;-63
2022/12/12 12:12:03;;;;;;;20.45;11.25;;;1.50;99.90;;;;;;7375124;32;20102;-62
2022/12/12 12:17:00;;;;;;;18.43;11.00;;;1.50;99.90;;;;;;7381578;32;20128;-62
2022/12/12 12:21:25;;;;;;;21.45;11.43;;;1.60;99.90;;;;;;7358680;32;20185;-62
2022/12/12 12:25:40;;;;;;;23.17;11.40;;;1.60;99.90;;;;;;7378316;32;20122;-62
2022/12/12 12:30:20;;;;;;;18.87;10.35;;;1.60;99.90;;;;;;7376135;32;20122;-63
2022/12/12 12:34:31;;;;;;;19.05;10.57;;;1.90;99.90;;;;;;7367482;32;20178;-61
2022/12/12 12:39:07;;;;;;;19.27;10.55;;;1.70;99.90;;;;;;7374129;32;20583;-63
2022/12/12 12:43:33;;;;;;;19.73;10.77;;;1.80;99.90;;;;;;7377377;32;20242;-62
2022/12/12 12:48:02;;;;;;;18.40;10.48;;;1.80;99.90;;;;;;7372564;32;20103;-63
2022/12/12 12:52:35;;;;;;;18.70;10.18;;;1.80;99.90;;;;;;7353160;32;20121;-61
2022/12/12 12:56:47;;;;;;;21.98;10.73;;;1.70;99.90;;;;;;7378686;32;20198;-61
2022/12/12 13:00:58;;;;;;;21.70;10.65;;;1.70;99.90;;;;;;7383003;32;20102;-63
2022/12/12 13:05:10;;;;;;;17.58;11.10;;;1.70;99.90;;;;;;7374098;32;20265;-61
2022/12/12 13:09:32;;;;;;;20.90;11.12;;;1.80;99.90;;;;;;7370009;32;20810;-61
2022/12/12 13:13:38;;;;;;;19.95;11.10;;;1.80;99.90;;;;;;7383502;32;20117;-61
2022/12/12 13:17:49;;;;;;;20.35;10.45;;;1.80;99.90;;;;;;7378013;32;20186;-61
2022/12/12 13:22:01;;;;;;;25.33;11.57;;;1.80;99.90;;;;;;7376029;32;20102;-61
2022/12/12 13:26:11;;;;;;;22.92;11.07;;;1.80;99.90;;;;;;7369069;32;21787;-62
2022/12/12 13:30:22;;;;;;;17.58;10.80;;;2.00;99.90;;;;;;7376288;32;20120;-62
2022/12/12 13:34:26;;;;;;;21.73;11.05;;;2.20;99.90;;;;;;7376988;32;20117;-61
2022/12/12 13:38:32;;;;;;;19.33;10.30;;;2.30;99.90;;;;;;7372415;32;21165;-61
2022/12/12 13:42:53;;;;;;;21.23;11.35;;;2.40;99.90;;;;;;7372362;32;20092;-62
2022/12/12 13:46:54;;;;;;;18.60;10.32;;;2.20;99.90;;;;;;7369345;32;20533;-62
2022/12/12 13:51:29;;;;;;;20.55;11.50;;;2.10;99.90;;;;;;7373864;32;20103;-61
2022/12/12 13:55:31;;;;;;;22.25;11.15;;;1.90;99.90;;;;;;7373740;32;20738;-62
2022/12/12 13:59:52;;;;;;;21.40;11.65;;;1.90;99.90;;;;;;7377681;32;20153;-62
2022/12/12 14:03:54;;;;;;;21.77;10.63;;;2.00;99.90;;;;;;7373121;32;20550;-61
2022/12/12 14:08:12;;;;;;;23.10;10.85;;;2.20;99.90;;;;;;7370849;32;20103;-61
2022/12/12 14:12:29;;;;;;;20.67;10.82;;;2.30;99.90;;;;;;7376502;32;20500;-61
2022/12/12 14:16:34;;;;;;;20.70;11.63;;;2.30;99.90;;;;;;7377884;32;20139;-63
2022/12/12 14:20:41;;;;;;;21.87;11.43;;;2.10;99.90;;;;;;7376271;32;20152;-62
2022/12/12 14:25:16;;;;;;;18.55;10.68;;;1.90;99.90;;;;;;7369337;32;20106;-61
2022/12/12 14:29:18;;;;;;;19.48;11.10;;;1.80;99.90;;;;;;7353257;32;20541;-61
2022/12/12 14:33:50;;;;;;;17.25;9.73;;;1.60;99.90;;;;;;7362695;32;20119;-61
2022/12/12 14:38:25;;;;;;;20.50;10.75;;;1.60;99.90;;;;;;7364538;32;20133;-60
2022/12/12 14:42:28;;;;;;;20.85;10.15;;;1.50;99.90;;;;;;7366851;32;20098;-61
2022/12/12 14:46:50;;;;;;;18.92;10.23;;;1.30;99.90;;;;;;7363090;32;20516;-61
2022/12/12 14:50:58;;;;;;;19.02;10.35;;;1.30;99.90;;;;;;7362042;32;20290;-60
2022/12/12 14:55:04;;;;;;;16.92;9.50;;;1.10;99.90;;;;;;7365411;32;20885;-61
2022/12/12 14:59:12;;;;;;;19.67;11.63;;;1.00;99.90;;;;;;7366827;32;20218;-61
2022/12/12 15:03:14;;;;;;;21.17;11.70;;;0.80;99.90;;;;;;7368916;32;20122;-60
2022/12/12 15:07:24;;;;;;;21.62;10.73;;;0.80;99.90;;;;;;7369510;32;20136;-61
2022/12/12 15:11:30;;;;;;;19.35;10.45;;;0.60;99.90;;;;;;7372276;32;20494;-61
2022/12/12 15:15:33;;;;;;;19.67;10.37;;;0.40;99.90;;;;;;7372582;32;20495;-61
2022/12/12 15:19:42;;;;;;;19.87;10.88;;;0.20;99.90;;;;;;7370764;32;20193;-60
2022/12/12 15:23:44;;;;;;;20.98;10.73;;;0.10;99.90;;;;;;7370786;32;20133;-60
2022/12/12 15:27:49;;;;;;;19.75;10.95;;;0.00;99.90;;;;;;7369126;32;20133;-60
2022/12/12 15:32:07;;;;;;;18.90;9.98;;;-0.20;99.90;;;;;;7371992;32;20107;-60
2022/12/12 15:36:27;;;;;;;22.62;10.90;;;-0.30;99.90;;;;;;7370084;32;20152;-59
2022/12/12 15:40:39;;;;;;;19.75;9.95;;;-0.40;99.90;;;;;;7372060;32;20490;-60
2022/12/12 15:44:42;;;;;;;17.23;10.27;;;-0.50;99.90;;;;;;7365569;32;20265;-59
2022/12/12 15:48:51;;;;;;;18.52;11.25;;;-0.60;99.90;;;;;;7364935;32;20174;-58
2022/12/12 15:52:59;;;;;;;21.30;11.35;;;-0.70;99.90;;;;;;7366086;32;20225;-59
2022/12/12 15:57:01;;;;;;;28.80;15.98;;;-0.80;99.90;;;;;;7367094;32;20103;-59
2022/12/12 16:01:12;;;;;;;28.75;15.30;;;-0.90;99.90;;;;;;7373368;32;20546;-59
2022/12/12 16:05:29;;;;;;;22.37;11.02;;;-0.90;99.90;;;;;;7380034;32;20159;-59
2022/12/12 16:09:30;;;;;;;21.02;11.55;;;-0.90;99.90;;;;;;7375605;32;20194;-59
2022/12/12 16:13:40;;;;;;;15.65;10.23;;;-1.00;99.90;;;;;;7375607;32;20103;-59
2022/12/12 16:17:57;;;;;;;19.70;10.88;;;-1.00;99.90;;;;;;7373320;32;20123;-59
2022/12/12 16:22:28;;;;;;;22.90;10.65;;;-1.10;99.90;;;;;;7376834;32;20103;-59
2022/12/12 16:26:29;;;;;;;24.23;10.70;;;-1.20;99.90;;;;;;7359168;32;20103;-59
2022/12/12 16:30:31;;;;;;;19.37;10.52;;;-1.20;99.90;;;;;;7382881;32;20231;-60
2022/12/12 16:34:33;;;;;;;24.98;12.63;;;-1.30;99.90;;;;;;7373817;32;20144;-59
2022/12/12 16:38:35;;;;;;;52.33;22.35;;;-1.30;99.90;;;;;;7377540;32;20114;-60
2022/12/12 16:42:37;;;;;;;39.95;18.10;;;-1.40;99.90;;;;;;7380895;32;20213;-60
2022/12/12 16:46:38;;;;;;;22.40;11.75;;;-1.40;99.90;;;;;;7372118;32;20558;-59
2022/12/12 16:50:40;;;;;;;21.42;10.80;;;-1.50;99.90;;;;;;7372382;32;20119;-60
2022/12/12 16:54:43;;;;;;;22.87;10.93;;;-1.50;99.90;;;;;;7368205;32;20145;-59
2022/12/12 16:58:54;;;;;;;21.85;10.30;;;-1.50;99.90;;;;;;7371337;32;20149;-59
2022/12/12 17:02:56;;;;;;;19.90;10.35;;;-1.50;99.90;;;;;;7372786;32;20095;-60
2022/12/12 17:06:58;;;;;;;21.33;11.35;;;-1.60;99.90;;;;;;7373275;32;20122;-60
2022/12/12 17:11:00;;;;;;;21.98;11.57;;;-1.60;99.90;;;;;;7379755;32;20494;-60
2022/12/12 17:15:15;;;;;;;26.27;11.93;;;-1.70;99.90;;;;;;7373361;32;20210;-59
2022/12/12 17:19:17;;;;;;;27.07;12.47;;;-1.70;99.90;;;;;;7377476;32;20099;-60
2022/12/12 17:23:21;;;;;;;23.70;11.70;;;-1.70;99.90;;;;;;7368746;32;20103;-60
2022/12/12 17:27:29;;;;;;;22.80;12.10;;;-1.70;99.90;;;;;;7373238;32;20165;-60
2022/12/12 17:31:31;;;;;;;25.90;12.52;;;-1.80;99.90;;;;;;7371219;32;20100;-60
2022/12/12 17:35:32;;;;;;;25.65;12.18;;;-1.80;99.90;;;;;;7370351;32;20119;-59
2022/12/12 17:39:34;;;;;;;20.80;11.68;;;-1.90;99.90;;;;;;7372390;32;20111;-61
2022/12/12 17:43:36;;;;;;;25.55;12.25;;;-1.90;99.90;;;;;;7374781;32;20103;-60
2022/12/12 17:47:38;;;;;;;22.67;12.75;;;-1.90;99.90;;;;;;7376212;32;20129;-60
2022/12/12 17:51:40;;;;;;;22.70;12.52;;;-2.00;99.90;;;;;;7371613;32;20405;-59
2022/12/12 17:55:41;;;;;;;21.27;11.93;;;-2.00;99.90;;;;;;7378981;32;20574;-59
2022/12/12 18:00:05;;;;;;;27.27;13.40;;;-2.00;99.90;;;;;;7368336;32;20224;-59
2022/12/12 18:04:07;;;;;;;30.37;16.67;;;-2.00;99.90;;;;;;7372930;32;20149;-59
2022/12/12 18:08:11;;;;;;;35.47;19.37;;;-2.00;99.90;;;;;;7369862;32;20214;-60
2022/12/12 18:12:13;;;;;;;62.58;30.10;;;-2.10;99.90;;;;;;7371442;32;20245;-61
2022/12/12 18:16:15;;;;;;;41.55;18.77;;;-2.20;99.90;;;;;;7370996;32;20133;-59
2022/12/12 18:20:18;;;;;;;26.10;14.93;;;-2.20;99.90;;;;;;7369513;32;20131;-60
2022/12/12 18:24:21;;;;;;;33.20;15.50;;;-2.20;99.90;;;;;;7377906;32;20099;-59
2022/12/12 18:28:23;;;;;;;48.03;19.70;;;-2.30;99.90;;;;;;7368092;32;20225;-60
2022/12/12 18:32:25;;;;;;;56.58;22.42;;;-2.30;99.90;;;;;;7371000;32;20107;-61
2022/12/12 18:36:29;;;;;;;62.50;22.85;;;-2.30;99.90;;;;;;7362164;32;20174;-60
2022/12/12 18:40:30;;;;;;;55.33;21.35;;;-2.40;99.90;;;;;;7370710;32;20123;-60
2022/12/12 18:44:32;;;;;;;62.30;23.20;;;-2.30;99.90;;;;;;7361401;32;20125;-60
2022/12/12 18:48:37;;;;;;;46.65;19.65;;;-2.30;99.90;;;;;;7371578;32;20102;-60
2022/12/12 18:52:39;;;;;;;50.35;21.75;;;-2.50;99.90;;;;;;7367453;32;20147;-59
2022/12/12 18:56:41;;;;;;;48.90;21.20;;;-2.40;99.90;;;;;;7369837;32;20516;-60
2022/12/12 19:00:42;;;;;;;35.83;18.10;;;-2.40;99.90;;;;;;7365642;32;20212;-58
2022/12/12 19:04:45;;;;;;;34.85;16.30;;;-2.50;99.90;;;;;;7369555;32;20126;-59
2022/12/12 19:08:48;;;;;;;28.10;14.68;;;-2.50;99.90;;;;;;7368045;32;20671;-59
2022/12/12 19:12:49;;;;;;;25.80;14.25;;;-2.50;99.90;;;;;;7368608;32;20849;-60
2022/12/12 19:16:51;;;;;;;27.83;14.85;;;-2.60;99.90;;;;;;7368430;32;20194;-59
2022/12/12 19:20:53;;;;;;;29.87;15.45;;;-2.60;99.90;;;;;;7367822;32;20605;-59
2022/12/12 19:24:55;;;;;;;28.55;15.25;;;-2.60;99.90;;;;;;7368916;32;20667;-59
2022/12/12 19:28:58;;;;;;;30.67;16.17;;;-2.60;99.90;;;;;;7367824;32;20125;-60
2022/12/12 19:33:00;;;;;;;28.48;14.25;;;-2.60;99.90;;;;;;7370225;32;20099;-60
2022/12/12 19:37:02;;;;;;;31.08;15.43;;;-2.70;99.90;;;;;;7368784;32;20189;-61
2022/12/12 19:41:08;;;;;;;27.90;14.15;;;-2.70;99.90;;;;;;7369741;32;20735;-61
2022/12/12 19:45:10;;;;;;;31.73;15.50;;;-2.70;99.90;;;;;;7370067;32;20145;-60
2022/12/12 19:49:13;;;;;;;32.20;16.48;;;-2.80;99.90;;;;;;7370067;32;20214;-60
2022/12/12 19:53:15;;;;;;;29.55;16.35;;;-2.80;99.90;;;;;;7368088;32;20131;-60
2022/12/12 19:57:16;;;;;;;29.15;14.93;;;-2.80;99.90;;;;;;7366857;32;20123;-60
2022/12/12 20:01:21;;;;;;;30.45;16.08;;;-2.80;99.90;;;;;;7370619;32;20111;-60
2022/12/12 20:05:23;;;;;;;30.30;15.20;;;-2.90;99.90;;;;;;7364927;32;20126;-60
2022/12/12 20:09:27;;;;;;;31.67;15.60;;;-2.90;99.90;;;;;;7363897;32;20199;-59
2022/12/12 20:13:28;;;;;;;31.73;15.07;;;-2.90;99.90;;;;;;7368393;32;20440;-59
2022/12/12 20:17:30;;;;;;;32.35;15.63;;;-3.00;99.90;;;;;;7372410;32;20218;-60
2022/12/12 20:21:32;;;;;;;39.38;21.00;;;-3.00;99.90;;;;;;7371301;32;20139;-60
2022/12/12 20:25:54;;;;;;;47.78;22.35;;;-3.00;99.90;;;;;;7370691;32;20126;-60
2022/12/12 20:29:55;;;;;;;33.85;17.73;;;-3.00;99.90;;;;;;7366010;32;20139;-61
2022/12/12 20:33:58;;;;;;;37.75;17.10;;;-3.00;99.90;;;;;;7366944;32;20141;-60
2022/12/12 20:38:00;;;;;;;34.15;17.25;;;-3.10;99.90;;;;;;7368777;32;20117;-60
2022/12/12 20:42:01;;;;;;;34.75;17.30;;;-3.10;99.90;;;;;;7359190;32;20228;-61
2022/12/12 20:46:16;;;;;;;45.65;22.30;;;-3.10;99.90;;;;;;7366655;32;20146;-61
2022/12/12 20:50:18;;;;;;;29.48;16.92;;;-3.10;99.90;;;;;;7367161;32;20103;-60
2022/12/12 20:54:21;;;;;;;35.83;16.92;;;-3.20;99.90;;;;;;7362334;32;20158;-60
2022/12/12 20:58:22;;;;;;;31.42;16.30;;;-3.20;99.90;;;;;;7363910;32;20121;-58
2022/12/12 21:02:24;;;;;;;31.52;16.98;;;-3.20;99.90;;;;;;7363091;32;20801;-60
2022/12/12 21:06:39;;;;;;;34.45;17.58;;;-3.30;99.90;;;;;;7365396;32;20115;-60
2022/12/12 21:10:41;;;;;;;37.08;18.08;;;-3.30;99.90;;;;;;7363212;32;20207;-60
2022/12/12 21:14:44;;;;;;;35.35;18.90;;;-3.30;99.90;;;;;;7364823;32;20206;-60